Terminal Aerodrome Forecast
Issued by NWS

Home | Current Version | Previous Version | Text Only | Print | Product List | Glossary On
Versions: 1 2 3 4 5 6 7 8 9 10 11 12 13 14 15 16 17 18 19 20 21 22 23 24 25 26 27 28 29 30 31 32
601
FTUS44 KHGX 112353 CCA
TAFCXO
TAF COR
KCXO 112353Z 1200/1224 21013KT P6SM SKC
     FM120100 20005KT P6SM SKC
     FM120900 22003KT 6SM MIFG SCT005
      TEMPO 1211/1215 2SM BR SCT003
     FM121600 25008KT P6SM FEW020
     FM122200 35005KT P6SM FEW030=

USA.gov is the U.S. government's official web portal to all federal, state and local government web resources and services.